Airport Name : Melbourne Intl

Other Name : Melbourne Intl

ICAO : KMLB

IATA : MLB

FAA : MLB

Latitude : 28.102753

Longitude : -80.645258

Country : United States

Local Date and Time : 22 May 2024 17:36

 

TAF (Terminal Aerodrome Forecast)

KMLB 222105Z 2221/2318 06013KT P6SM FEW060 FM230000 08009KT P6SM FEW250 FM231500 08006KT P6SM FEW035 FEW060

 

METAR (METeorological Aerodrome Report)

KMLB 222053Z 04013KT 10SM CLR 29/20 A2997 RMK AO2 SLP148 T02890200 56014

KMLB 221953Z 06012KT 10SM CLR 29/20 A2998 RMK AO2 SLP153 T02940200

KMLB 221853Z 05010KT 10SM CLR 29/19 A2999 RMK AO2 SLP156 T02940194

KMLB 221753Z 06010KT 10SM CLR 29/20 A3001 RMK AO2 SLP162 T02940200 10300 20261 58002